Time;durP1;ratioP1;P1;durP2;ratioP2;P2;SDS_P1;SDS_P2;PMS_P1;PMS_P2;Temp;Humidity;BMP_temperature;BMP_pressure;BME280_temperature;BME280_humidity;BME280_pressure;Samples;Min_cycle;Max_cycle;Signal;HPM_P1;HPM_P2
2022/11/23 00:02:22;;;;;;;3.70;2.57;;;;;;;;;;5040006;28;20205;-30
2022/11/23 00:04:49;;;;;;;5.83;2.63;;;;;;;;;;5050204;28;20213;-26
2022/11/23 00:07:19;;;;;;;3.67;2.30;;;;;;;;;;5042985;28;20309;-29
2022/11/23 00:09:46;;;;;;;4.90;3.07;;;;;;;;;;5034772;28;20210;-27
2022/11/23 00:12:13;;;;;;;4.63;2.17;;;;;;;;;;5048340;28;20316;-30
2022/11/23 00:14:40;;;;;;;2.27;2.07;;;;;;;;;;5047778;28;20205;-29
2022/11/23 00:17:09;;;;;;;2.47;1.97;;;;;;;;;;5041269;28;20205;-29
2022/11/23 00:19:36;;;;;;;2.87;2.30;;;;;;;;;;5050668;28;20274;-26
2022/11/23 00:22:03;;;;;;;3.23;2.43;;;;;;;;;;5048512;28;20230;-27
2022/11/23 00:24:30;;;;;;;3.53;2.10;;;;;;;;;;5043253;28;20230;-26
2022/11/23 00:29:26;;;;;;;3.23;2.53;;;;;;;;;;5038625;28;20219;-37
2022/11/23 00:31:53;;;;;;;6.80;2.47;;;;;;;;;;5024491;28;20239;-33
2022/11/23 00:34:21;;;;;;;2.67;1.93;;;;;;;;;;5027788;28;20217;-35
2022/11/23 00:36:48;;;;;;;2.37;1.33;;;;;;;;;;5029681;28;20202;-38
2022/11/23 00:39:16;;;;;;;2.10;1.90;;;;;;;;;;5018434;28;20274;-31
2022/11/23 00:41:43;;;;;;;3.63;1.97;;;;;;;;;;5030003;28;20298;-39
2022/11/23 00:44:10;;;;;;;2.03;1.87;;;;;;;;;;5033327;28;20317;-32
2022/11/23 00:46:37;;;;;;;1.97;1.80;;;;;;;;;;5025278;28;20207;-32
2022/11/23 00:49:05;;;;;;;3.57;2.13;;;;;;;;;;5044357;28;20297;-31
2022/11/23 00:51:35;;;;;;;3.13;2.00;;;;;;;;;;5023602;28;20238;-32
2022/11/23 00:54:03;;;;;;;2.30;1.83;;;;;;;;;;5023060;28;20213;-33
2022/11/23 00:56:30;;;;;;;1.60;1.50;;;;;;;;;;5023835;28;20221;-28
2022/11/23 00:58:58;;;;;;;4.63;1.70;;;;;;;;;;5025244;28;20203;-36
2022/11/23 01:01:27;;;;;;;1.47;1.33;;;;;;;;;;5013105;28;20223;-36
2022/11/23 01:03:56;;;;;;;2.97;1.47;;;;;;;;;;5021108;28;20407;-36
2022/11/23 01:06:24;;;;;;;2.17;1.53;;;;;;;;;;5033307;28;20218;-32
2022/11/23 01:08:54;;;;;;;2.53;1.57;;;;;;;;;;5029072;28;20225;-39
2022/11/23 01:11:22;;;;;;;2.73;2.03;;;;;;;;;;5045929;28;20222;-36
2022/11/23 01:13:49;;;;;;;1.93;1.70;;;;;;;;;;5040481;28;20206;-35
2022/11/23 01:16:20;;;;;;;4.30;1.50;;;;;;;;;;5024890;28;20209;-36
2022/11/23 01:18:47;;;;;;;9.60;5.90;;;;;;;;;;5036516;28;20278;-33
2022/11/23 01:21:14;;;;;;;10.77;7.67;;;;;;;;;;5034213;28;20229;-32
2022/11/23 01:23:41;;;;;;;13.50;8.33;;;;;;;;;;5023718;28;20402;-34
2022/11/23 01:26:11;;;;;;;10.40;6.50;;;;;;;;;;5032638;28;20236;-32
2022/11/23 01:28:38;;;;;;;8.47;5.60;;;;;;;;;;5041295;28;20224;-40
2022/11/23 01:31:07;;;;;;;8.00;5.30;;;;;;;;;;5025802;28;20227;-33
2022/11/23 01:33:34;;;;;;;7.50;4.63;;;;;;;;;;5049999;28;20293;-36
2022/11/23 01:36:01;;;;;;;4.53;3.33;;;;;;;;;;5033880;28;20217;-35
2022/11/23 01:38:28;;;;;;;4.67;2.93;;;;;;;;;;5023854;28;20207;-29
2022/11/23 01:40:56;;;;;;;4.03;2.30;;;;;;;;;;5030359;28;20227;-37
2022/11/23 01:43:25;;;;;;;4.67;2.80;;;;;;;;;;5034566;28;20276;-33
2022/11/23 01:45:59;;;;;;;3.17;2.13;;;;;;;;;;5025363;28;20318;-36
2022/11/23 01:48:27;;;;;;;3.77;2.77;;;;;;;;;;5030939;28;20212;-30
2022/11/23 01:50:57;;;;;;;4.50;2.67;;;;;;;;;;5035118;28;20230;-37
2022/11/23 01:53:24;;;;;;;4.40;2.20;;;;;;;;;;5027182;28;20300;-31
2022/11/23 01:55:52;;;;;;;3.50;2.60;;;;;;;;;;5031669;28;20202;-33
2022/11/23 01:58:21;;;;;;;4.33;2.23;;;;;;;;;;5035609;28;20206;-32
2022/11/23 02:00:50;;;;;;;3.77;2.00;;;;;;;;;;5015716;28;20355;-31
2022/11/23 02:03:18;;;;;;;6.33;2.20;;;;;;;;;;5026576;28;20213;-31
2022/11/23 02:05:48;;;;;;;2.57;2.37;;;;;;;;;;5040656;28;20223;-36
2022/11/23 02:08:15;;;;;;;4.77;2.57;;;;;;;;;;5033317;28;20585;-32
2022/11/23 02:10:43;;;;;;;3.90;2.27;;;;;;;;;;5027857;28;20604;-35
2022/11/23 02:13:11;;;;;;;3.17;2.30;;;;;;;;;;5031845;28;20260;-35
2022/11/23 02:15:39;;;;;;;2.80;2.17;;;;;;;;;;5021178;28;20209;-35
2022/11/23 02:18:10;;;;;;;4.20;3.20;;;;;;;;;;5034519;28;20207;-33
2022/11/23 02:20:37;;;;;;;5.27;2.73;;;;;;;;;;5050250;28;20222;-36
2022/11/23 02:23:11;;;;;;;4.80;2.60;;;;;;;;;;5028913;28;20206;-34
2022/11/23 02:25:42;;;;;;;2.77;2.47;;;;;;;;;;5038323;28;20210;-34
2022/11/23 02:28:11;;;;;;;3.53;2.93;;;;;;;;;;5034799;28;20281;-32
2022/11/23 02:30:38;;;;;;;8.73;3.83;;;;;;;;;;5029040;28;20317;-32
2022/11/23 02:33:06;;;;;;;4.37;2.80;;;;;;;;;;5035874;28;20570;-33
2022/11/23 02:35:33;;;;;;;3.30;3.00;;;;;;;;;;5049463;28;20384;-35
2022/11/23 02:38:01;;;;;;;3.90;3.07;;;;;;;;;;5049642;28;20284;-39
2022/11/23 02:40:31;;;;;;;7.37;3.50;;;;;;;;;;5021474;28;20230;-32
2022/11/23 02:42:58;;;;;;;4.97;2.83;;;;;;;;;;5024403;28;20407;-36
2022/11/23 02:45:31;;;;;;;5.83;2.77;;;;;;;;;;5015338;28;20711;-33
2022/11/23 02:47:58;;;;;;;3.17;2.57;;;;;;;;;;5030755;28;20211;-32
2022/11/23 02:50:26;;;;;;;5.70;3.33;;;;;;;;;;5032264;28;20262;-32
2022/11/23 02:52:53;;;;;;;5.07;3.00;;;;;;;;;;5020441;28;20223;-37
2022/11/23 02:55:20;;;;;;;3.93;2.57;;;;;;;;;;5030889;28;20224;-36
2022/11/23 02:57:48;;;;;;;5.77;3.27;;;;;;;;;;5032492;28;20543;-38
2022/11/23 03:00:15;;;;;;;5.03;3.07;;;;;;;;;;5021182;28;20234;-35
2022/11/23 03:02:44;;;;;;;5.93;2.77;;;;;;;;;;5034727;28;20214;-34
2022/11/23 03:05:13;;;;;;;6.33;3.17;;;;;;;;;;5038328;28;20251;-28
2022/11/23 03:07:40;;;;;;;4.23;2.83;;;;;;;;;;5030659;28;20559;-35
2022/11/23 03:10:08;;;;;;;4.83;2.60;;;;;;;;;;5032143;28;20209;-31
2022/11/23 03:12:36;;;;;;;4.27;2.87;;;;;;;;;;5039455;28;20233;-35
2022/11/23 03:15:03;;;;;;;4.60;2.73;;;;;;;;;;5017740;28;20206;-31
2022/11/23 03:17:31;;;;;;;6.37;2.73;;;;;;;;;;5022652;28;20210;-38
2022/11/23 03:19:59;;;;;;;5.37;2.77;;;;;;;;;;5031560;28;20228;-32
2022/11/23 03:22:27;;;;;;;4.13;2.70;;;;;;;;;;5024203;28;20203;-34
2022/11/23 03:24:54;;;;;;;6.50;3.20;;;;;;;;;;5026079;28;20227;-36
2022/11/23 03:27:21;;;;;;;4.17;2.60;;;;;;;;;;5041162;28;20225;-35
2022/11/23 03:29:48;;;;;;;5.90;3.33;;;;;;;;;;5023920;28;20218;-31
2022/11/23 03:32:15;;;;;;;4.33;2.60;;;;;;;;;;5024162;28;20229;-37
2022/11/23 03:34:42;;;;;;;4.20;2.87;;;;;;;;;;5040773;28;20293;-32
2022/11/23 03:37:11;;;;;;;7.40;2.80;;;;;;;;;;5040620;28;20207;-32
2022/11/23 03:39:38;;;;;;;4.37;2.80;;;;;;;;;;5014160;28;20300;-35
2022/11/23 03:42:05;;;;;;;3.70;2.17;;;;;;;;;;5043207;28;20213;-35
2022/11/23 03:44:33;;;;;;;6.63;3.50;;;;;;;;;;5033686;28;20397;-30
2022/11/23 03:47:00;;;;;;;4.67;2.63;;;;;;;;;;5028009;28;20202;-33
2022/11/23 03:49:27;;;;;;;2.90;2.53;;;;;;;;;;5035515;28;20203;-32
2022/11/23 03:51:54;;;;;;;6.53;3.20;;;;;;;;;;5031553;28;20270;-32
2022/11/23 03:54:22;;;;;;;3.57;2.30;;;;;;;;;;5022537;28;20203;-33
2022/11/23 03:56:50;;;;;;;3.27;2.30;;;;;;;;;;5046824;28;20198;-34
2022/11/23 03:59:17;;;;;;;2.70;2.40;;;;;;;;;;5024756;28;20303;-28
2022/11/23 04:01:44;;;;;;;3.73;2.70;;;;;;;;;;5015385;28;20693;-31
2022/11/23 04:04:11;;;;;;;3.27;2.47;;;;;;;;;;5044379;28;20211;-32
2022/11/23 04:06:38;;;;;;;5.20;3.60;;;;;;;;;;5048190;28;20228;-31
2022/11/23 04:09:05;;;;;;;6.10;2.70;;;;;;;;;;5011617;28;20571;-34
2022/11/23 04:11:34;;;;;;;5.20;2.83;;;;;;;;;;5026060;28;20226;-32
2022/11/23 04:14:01;;;;;;;5.50;2.93;;;;;;;;;;5019310;28;20207;-33
2022/11/23 04:16:28;;;;;;;4.77;2.73;;;;;;;;;;5022877;28;20563;-33
2022/11/23 04:18:55;;;;;;;7.87;3.90;;;;;;;;;;5038633;28;20206;-36
2022/11/23 04:21:22;;;;;;;6.30;3.40;;;;;;;;;;5030943;28;20317;-34
2022/11/23 04:23:49;;;;;;;6.87;3.37;;;;;;;;;;5029669;28;20198;-32
2022/11/23 04:26:16;;;;;;;5.93;3.53;;;;;;;;;;5040666;28;20228;-35
2022/11/23 04:28:45;;;;;;;5.40;2.87;;;;;;;;;;5030332;28;20211;-35
2022/11/23 04:31:12;;;;;;;7.07;3.30;;;;;;;;;;5026266;28;20231;-32
2022/11/23 04:33:39;;;;;;;5.40;2.50;;;;;;;;;;5045762;28;20202;-35
2022/11/23 04:36:06;;;;;;;5.07;2.93;;;;;;;;;;5025736;28;20289;-28
2022/11/23 04:38:33;;;;;;;4.07;2.70;;;;;;;;;;5029104;28;20262;-29
2022/11/23 04:41:01;;;;;;;4.53;2.60;;;;;;;;;;5041732;28;20218;-38
2022/11/23 04:43:28;;;;;;;4.10;2.87;;;;;;;;;;5050090;28;20612;-35
2022/11/23 04:45:56;;;;;;;4.07;2.80;;;;;;;;;;5024483;28;20233;-37
2022/11/23 04:48:23;;;;;;;2.53;2.30;;;;;;;;;;5031062;28;20205;-33
2022/11/23 04:50:51;;;;;;;4.47;3.07;;;;;;;;;;5038021;28;20230;-36
2022/11/23 04:53:18;;;;;;;7.67;2.80;;;;;;;;;;5022477;28;20404;-37
2022/11/23 04:55:47;;;;;;;2.60;2.40;;;;;;;;;;5034686;28;20229;-34
2022/11/23 04:58:14;;;;;;;3.07;2.30;;;;;;;;;;5027046;28;20225;-32
2022/11/23 05:00:41;;;;;;;4.10;3.00;;;;;;;;;;5012791;28;20571;-32
2022/11/23 05:03:09;;;;;;;4.90;3.13;;;;;;;;;;5037411;28;20222;-31
2022/11/23 05:05:38;;;;;;;6.90;3.00;;;;;;;;;;5029771;28;20214;-32
2022/11/23 05:08:06;;;;;;;5.00;3.30;;;;;;;;;;5019637;28;20263;-34
2022/11/23 05:10:33;;;;;;;5.53;2.70;;;;;;;;;;5044350;28;20230;-34
2022/11/23 05:13:00;;;;;;;4.23;2.63;;;;;;;;;;5041423;28;20199;-34
2022/11/23 05:15:27;;;;;;;5.07;2.63;;;;;;;;;;5032507;28;20211;-37
2022/11/23 05:17:54;;;;;;;2.97;2.50;;;;;;;;;;5037651;28;20210;-33
2022/11/23 05:20:23;;;;;;;4.63;2.50;;;;;;;;;;5039307;28;20520;-32
2022/11/23 05:22:50;;;;;;;4.33;2.43;;;;;;;;;;5037464;28;20645;-36
2022/11/23 05:25:17;;;;;;;7.87;3.30;;;;;;;;;;5024682;28;20209;-33
2022/11/23 05:27:44;;;;;;;5.40;3.20;;;;;;;;;;5038897;28;20217;-36
2022/11/23 05:30:12;;;;;;;4.83;2.60;;;;;;;;;;5032822;28;20226;-34
2022/11/23 05:32:39;;;;;;;4.73;2.90;;;;;;;;;;5030712;28;20203;-33
2022/11/23 05:35:07;;;;;;;2.90;2.63;;;;;;;;;;5039188;28;20194;-30
2022/11/23 05:37:35;;;;;;;4.63;2.23;;;;;;;;;;5030081;28;20206;-33
2022/11/23 05:40:03;;;;;;;3.43;2.40;;;;;;;;;;5019480;28;20590;-28
2022/11/23 05:42:30;;;;;;;5.37;2.50;;;;;;;;;;5037044;28;20190;-38
2022/11/23 05:44:57;;;;;;;3.60;2.70;;;;;;;;;;5021157;28;20282;-35
2022/11/23 05:47:24;;;;;;;3.47;2.57;;;;;;;;;;5040683;28;20305;-32
2022/11/23 05:49:51;;;;;;;3.33;2.53;;;;;;;;;;5031300;28;20203;-33
2022/11/23 05:52:18;;;;;;;3.57;2.30;;;;;;;;;;5029739;28;20293;-32
2022/11/23 05:54:47;;;;;;;3.17;2.60;;;;;;;;;;5025573;28;20294;-29
2022/11/23 05:57:16;;;;;;;5.10;2.70;;;;;;;;;;5033014;28;20199;-32
2022/11/23 05:59:43;;;;;;;6.07;2.70;;;;;;;;;;5022686;28;20254;-32
2022/11/23 06:02:11;;;;;;;3.63;2.30;;;;;;;;;;5029380;28;20214;-32
2022/11/23 06:04:38;;;;;;;2.47;2.27;;;;;;;;;;5049430;28;20229;-35
2022/11/23 06:07:05;;;;;;;4.03;2.20;;;;;;;;;;5055627;28;20232;-34
2022/11/23 06:09:32;;;;;;;4.13;2.70;;;;;;;;;;5034107;28;20663;-33
2022/11/23 06:12:00;;;;;;;5.43;2.90;;;;;;;;;;5043510;28;20234;-39
2022/11/23 06:14:28;;;;;;;2.43;2.20;;;;;;;;;;5028671;28;20209;-33
2022/11/23 06:16:55;;;;;;;4.07;2.67;;;;;;;;;;5023894;28;20218;-34
2022/11/23 06:19:22;;;;;;;3.10;2.50;;;;;;;;;;5037279;28;20204;-33
2022/11/23 06:21:49;;;;;;;4.37;2.60;;;;;;;;;;5051993;28;20225;-37
2022/11/23 06:24:16;;;;;;;4.33;2.50;;;;;;;;;;5029348;28;20292;-34
2022/11/23 06:26:43;;;;;;;4.03;2.70;;;;;;;;;;5032485;28;20223;-32
2022/11/23 06:29:12;;;;;;;2.90;2.10;;;;;;;;;;5032260;28;20242;-35
2022/11/23 06:31:39;;;;;;;6.47;2.80;;;;;;;;;;5026535;28;20222;-34
2022/11/23 06:34:06;;;;;;;4.20;2.50;;;;;;;;;;5027788;28;20199;-36
2022/11/23 06:36:33;;;;;;;2.73;2.30;;;;;;;;;;5032030;28;20203;-37
2022/11/23 06:39:00;;;;;;;2.70;2.20;;;;;;;;;;5028320;28;20210;-36
2022/11/23 06:41:28;;;;;;;3.50;2.30;;;;;;;;;;5038214;28;20228;-32
2022/11/23 06:46:24;;;;;;;5.03;3.30;;;;;;;;;;5047790;28;20261;-28
2022/11/23 06:48:52;;;;;;;3.73;2.83;;;;;;;;;;5049339;28;20206;-29
2022/11/23 06:51:19;;;;;;;4.83;2.97;;;;;;;;;;5039273;28;20309;-27
2022/11/23 06:53:46;;;;;;;4.00;2.50;;;;;;;;;;5042390;28;20330;-30
2022/11/23 06:56:13;;;;;;;2.60;2.40;;;;;;;;;;5031891;28;20305;-25
2022/11/23 06:58:40;;;;;;;4.80;2.73;;;;;;;;;;5021216;28;20207;-26
2022/11/23 07:01:09;;;;;;;3.07;2.50;;;;;;;;;;5022530;28;20306;-26
2022/11/23 07:03:37;;;;;;;4.90;2.80;;;;;;;;;;5029603;28;20227;-28
2022/11/23 07:06:06;;;;;;;4.80;3.03;;;;;;;;;;5034754;28;20218;-26
2022/11/23 07:08:33;;;;;;;4.83;3.17;;;;;;;;;;5029271;28;20207;-30
2022/11/23 07:11:01;;;;;;;6.47;3.17;;;;;;;;;;5025422;28;20227;-27
2022/11/23 07:13:28;;;;;;;5.23;3.93;;;;;;;;;;5033408;28;20231;-29
2022/11/23 07:15:55;;;;;;;5.13;3.07;;;;;;;;;;5027732;28;20203;-26
2022/11/23 07:18:22;;;;;;;5.10;3.23;;;;;;;;;;5033960;28;20270;-30
2022/11/23 07:20:51;;;;;;;4.70;3.40;;;;;;;;;;5034681;28;20329;-26
2022/11/23 07:23:18;;;;;;;5.03;3.47;;;;;;;;;;5031663;28;20213;-24
2022/11/23 07:25:45;;;;;;;3.57;2.63;;;;;;;;;;5025631;28;20230;-28
2022/11/23 07:28:13;;;;;;;4.37;3.33;;;;;;;;;;5034202;28;20205;-28
2022/11/23 07:30:40;;;;;;;4.40;3.60;;;;;;;;;;5028006;28;20219;-27
2022/11/23 07:33:08;;;;;;;7.07;3.83;;;;;;;;;;5033096;28;20209;-24
2022/11/23 07:35:35;;;;;;;5.40;3.20;;;;;;;;;;5033750;28;20213;-23
2022/11/23 07:38:06;;;;;;;4.47;3.03;;;;;;;;;;5025630;28;20206;-29
2022/11/23 07:40:34;;;;;;;4.87;3.67;;;;;;;;;;5033607;28;20276;-27
2022/11/23 07:43:01;;;;;;;4.10;2.80;;;;;;;;;;5034170;28;20217;-26
2022/11/23 07:45:28;;;;;;;4.47;2.83;;;;;;;;;;5021995;28;20226;-28
2022/11/23 07:47:59;;;;;;;3.90;3.17;;;;;;;;;;5030258;28;20226;-26
2022/11/23 07:50:26;;;;;;;7.30;3.07;;;;;;;;;;5047012;28;20317;-24
2022/11/23 07:52:53;;;;;;;3.83;2.90;;;;;;;;;;5030357;28;20211;-29
2022/11/23 07:55:22;;;;;;;5.10;3.23;;;;;;;;;;5028849;28;20217;-28
2022/11/23 07:57:52;;;;;;;6.07;4.57;;;;;;;;;;5033582;28;20206;-26
2022/11/23 08:00:20;;;;;;;6.40;3.40;;;;;;;;;;5029422;28;20222;-26
2022/11/23 08:02:47;;;;;;;6.27;3.60;;;;;;;;;;5032631;28;20198;-29
2022/11/23 08:05:14;;;;;;;6.23;2.67;;;;;;;;;;5033236;28;20213;-28
2022/11/23 08:07:41;;;;;;;4.63;2.93;;;;;;;;;;5028863;28;20234;-30
2022/11/23 08:10:09;;;;;;;8.77;3.00;;;;;;;;;;5023880;28;20202;-24
2022/11/23 08:12:37;;;;;;;3.17;2.80;;;;;;;;;;5032605;28;20210;-31
2022/11/23 08:15:05;;;;;;;4.13;3.03;;;;;;;;;;5022925;28;20198;-27
2022/11/23 08:17:32;;;;;;;3.97;3.07;;;;;;;;;;5032008;28;20229;-32
2022/11/23 08:19:59;;;;;;;3.43;2.60;;;;;;;;;;5030602;28;20207;-30
2022/11/23 08:22:26;;;;;;;5.63;3.43;;;;;;;;;;5016216;28;20289;-28
2022/11/23 08:24:54;;;;;;;4.70;3.13;;;;;;;;;;5021925;28;20219;-28
2022/11/23 08:27:21;;;;;;;4.83;3.00;;;;;;;;;;5032042;28;20215;-29
2022/11/23 08:29:49;;;;;;;8.00;3.37;;;;;;;;;;5032940;28;20293;-27
2022/11/23 08:32:19;;;;;;;3.40;2.57;;;;;;;;;;5032136;28;20205;-27
2022/11/23 08:34:46;;;;;;;5.23;3.07;;;;;;;;;;5032369;28;20641;-31
2022/11/23 08:37:14;;;;;;;7.93;3.47;;;;;;;;;;5028824;28;20202;-29
2022/11/23 08:39:41;;;;;;;5.13;3.10;;;;;;;;;;5030174;28;20203;-28
2022/11/23 08:42:08;;;;;;;6.47;3.83;;;;;;;;;;5031090;28;20233;-25
2022/11/23 08:44:35;;;;;;;6.30;3.27;;;;;;;;;;5024914;28;20215;-30
2022/11/23 08:47:03;;;;;;;5.83;2.97;;;;;;;;;;5031508;28;20227;-30
2022/11/23 08:49:31;;;;;;;4.23;2.87;;;;;;;;;;5028606;28;20203;-28
2022/11/23 08:51:58;;;;;;;6.03;2.83;;;;;;;;;;5026477;28;20323;-27
2022/11/23 08:54:25;;;;;;;5.03;2.67;;;;;;;;;;5032604;28;20211;-30
2022/11/23 08:56:53;;;;;;;4.17;2.93;;;;;;;;;;5032263;28;20207;-31
2022/11/23 08:59:20;;;;;;;5.47;2.53;;;;;;;;;;5019518;28;20213;-28
2022/11/23 09:01:47;;;;;;;6.73;2.87;;;;;;;;;;5026098;28;20226;-27
2022/11/23 09:04:15;;;;;;;4.23;2.63;;;;;;;;;;5033753;28;20221;-30
2022/11/23 09:06:42;;;;;;;8.40;2.77;;;;;;;;;;5031866;28;20309;-26
2022/11/23 09:09:10;;;;;;;5.33;3.00;;;;;;;;;;5022080;28;20207;-30
2022/11/23 09:11:37;;;;;;;5.50;2.77;;;;;;;;;;5028512;28;20321;-29
2022/11/23 09:14:04;;;;;;;6.63;2.80;;;;;;;;;;5033776;28;20337;-28
2022/11/23 09:16:31;;;;;;;4.27;2.70;;;;;;;;;;5024259;28;20202;-26
2022/11/23 09:18:58;;;;;;;4.07;2.90;;;;;;;;;;5029630;28;20205;-28
2022/11/23 09:21:29;;;;;;;6.20;2.60;;;;;;;;;;5031532;28;20222;-31
2022/11/23 09:23:56;;;;;;;7.20;2.80;;;;;;;;;;5027167;28;20205;-30
2022/11/23 09:26:24;;;;;;;3.17;2.53;;;;;;;;;;5034392;28;20206;-30
2022/11/23 09:28:51;;;;;;;4.47;2.60;;;;;;;;;;5039697;28;20217;-31
2022/11/23 09:31:18;;;;;;;3.63;2.43;;;;;;;;;;5027885;28;20219;-30
2022/11/23 09:33:45;;;;;;;5.03;2.30;;;;;;;;;;5035576;28;20233;-28
2022/11/23 09:36:13;;;;;;;6.90;2.40;;;;;;;;;;5035596;28;20210;-27
2022/11/23 09:38:41;;;;;;;5.40;2.30;;;;;;;;;;5032555;28;20213;-28
2022/11/23 09:41:17;;;;;;;2.60;2.40;;;;;;;;;;5029688;28;20232;-27
2022/11/23 09:43:49;;;;;;;8.27;3.30;;;;;;;;;;5032558;28;20213;-30
2022/11/23 09:46:22;;;;;;;4.33;2.90;;;;;;;;;;5029980;28;20238;-30
2022/11/23 09:49:01;;;;;;;4.10;2.50;;;;;;;;;;5035182;28;20214;-29
2022/11/23 09:51:28;;;;;;;7.13;2.83;;;;;;;;;;5036370;28;20233;-28
2022/11/23 09:53:59;;;;;;;7.10;2.97;;;;;;;;;;5030107;28;20204;-23
2022/11/23 09:56:27;;;;;;;8.17;2.87;;;;;;;;;;5034796;28;20206;-27
2022/11/23 09:59:03;;;;;;;5.80;3.17;;;;;;;;;;5040251;28;20297;-26
2022/11/23 10:01:30;;;;;;;4.57;2.87;;;;;;;;;;5031472;28;20230;-27
2022/11/23 10:03:58;;;;;;;5.67;3.03;;;;;;;;;;5039448;28;20218;-27
2022/11/23 10:06:26;;;;;;;5.77;2.50;;;;;;;;;;5035611;28;20204;-30
2022/11/23 10:08:58;;;;;;;4.97;2.50;;;;;;;;;;5033007;28;20209;-24
2022/11/23 10:11:31;;;;;;;3.80;2.30;;;;;;;;;;5045770;28;20280;-28
2022/11/23 10:14:04;;;;;;;4.07;2.30;;;;;;;;;;5048328;28;20207;-27
2022/11/23 10:16:38;;;;;;;3.83;2.30;;;;;;;;;;5028751;28;20213;-28
2022/11/23 10:19:11;;;;;;;5.77;2.67;;;;;;;;;;5042170;28;20210;-29
2022/11/23 10:21:42;;;;;;;3.40;2.30;;;;;;;;;;5038088;28;20230;-26
2022/11/23 10:24:19;;;;;;;2.67;2.37;;;;;;;;;;5028248;28;20205;-27
2022/11/23 10:26:47;;;;;;;3.57;2.60;;;;;;;;;;5037970;28;20205;-27
2022/11/23 10:29:16;;;;;;;4.73;2.43;;;;;;;;;;5036997;28;20199;-26
2022/11/23 10:31:46;;;;;;;4.83;2.77;;;;;;;;;;5038540;28;20221;-28
2022/11/23 10:34:14;;;;;;;7.13;2.90;;;;;;;;;;5031248;28;20198;-28
2022/11/23 10:36:41;;;;;;;5.13;2.53;;;;;;;;;;5046779;28;20213;-30
2022/11/23 10:39:14;;;;;;;3.17;2.87;;;;;;;;;;5029497;28;20203;-27
2022/11/23 10:41:44;;;;;;;4.03;3.07;;;;;;;;;;5041291;28;20295;-26
2022/11/23 10:44:16;;;;;;;5.43;2.50;;;;;;;;;;5034324;28;20210;-26
2022/11/23 10:46:43;;;;;;;4.57;2.73;;;;;;;;;;5035443;28;20293;-27
2022/11/23 10:49:16;;;;;;;5.47;2.30;;;;;;;;;;5028926;28;20467;-26
2022/11/23 10:51:49;;;;;;;3.30;2.20;;;;;;;;;;5032428;28;20227;-29
2022/11/23 10:54:20;;;;;;;4.90;2.37;;;;;;;;;;5028875;28;20202;-25
2022/11/23 10:56:49;;;;;;;4.97;2.20;;;;;;;;;;5040806;28;20202;-26
2022/11/23 10:59:31;;;;;;;5.63;2.60;;;;;;;;;;5033504;28;20214;-26
2022/11/23 11:02:17;;;;;;;2.60;2.27;;;;;;;;;;5037711;28;20245;-27
2022/11/23 11:04:44;;;;;;;4.17;2.47;;;;;;;;;;5040577;28;20202;-30
2022/11/23 11:07:19;;;;;;;3.13;2.03;;;;;;;;;;5039391;28;20344;-27
2022/11/23 11:09:49;;;;;;;3.63;2.57;;;;;;;;;;5038500;28;20201;-26
2022/11/23 11:12:21;;;;;;;9.23;3.57;;;;;;;;;;5036719;28;20285;-23
2022/11/23 11:15:01;;;;;;;28.97;13.33;;;;;;;;;;5037772;28;20216;-28
2022/11/23 11:17:29;;;;;;;13.17;7.17;;;;;;;;;;5039538;28;20197;-27
2022/11/23 11:19:57;;;;;;;6.03;2.43;;;;;;;;;;5043359;28;20202;-29
2022/11/23 11:22:34;;;;;;;7.43;4.40;;;;;;;;;;5038884;28;20295;-30
2022/11/23 11:25:02;;;;;;;6.93;2.40;;;;;;;;;;5023624;28;20208;-28
2022/11/23 11:27:31;;;;;;;4.30;2.40;;;;;;;;;;5039417;28;20317;-27
2022/11/23 11:30:02;;;;;;;2.97;2.30;;;;;;;;;;5040158;28;20205;-28
2022/11/23 11:32:32;;;;;;;7.43;2.70;;;;;;;;;;5037439;28;20297;-27
2022/11/23 11:35:04;;;;;;;3.97;2.37;;;;;;;;;;5038020;28;20201;-26
2022/11/23 11:37:33;;;;;;;3.90;2.43;;;;;;;;;;5028754;28;20203;-26
2022/11/23 11:40:05;;;;;;;4.43;2.50;;;;;;;;;;5037612;28;20220;-31
2022/11/23 11:42:35;;;;;;;6.60;3.00;;;;;;;;;;5042242;28;20210;-25
2022/11/23 11:45:04;;;;;;;4.00;2.37;;;;;;;;;;5035684;28;20217;-28
2022/11/23 11:47:32;;;;;;;3.60;2.50;;;;;;;;;;5032147;28;20219;-27
2022/11/23 11:50:01;;;;;;;6.67;2.10;;;;;;;;;;5034234;28;20210;-27
2022/11/23 11:52:31;;;;;;;4.33;2.23;;;;;;;;;;5037918;28;20206;-26
2022/11/23 11:55:02;;;;;;;3.63;2.10;;;;;;;;;;5031267;28;20210;-27
2022/11/23 11:57:32;;;;;;;4.03;1.77;;;;;;;;;;5030371;28;20203;-26
2022/11/23 12:00:02;;;;;;;3.90;1.77;;;;;;;;;;5027515;28;20218;-25
2022/11/23 12:02:31;;;;;;;4.17;2.47;;;;;;;;;;5041403;28;20259;-29
2022/11/23 12:05:03;;;;;;;4.83;1.70;;;;;;;;;;5036779;28;20205;-27
2022/11/23 12:07:32;;;;;;;1.07;0.93;;;;;;;;;;5035371;28;20228;-29
2022/11/23 12:10:03;;;;;;;2.20;0.80;;;;;;;;;;5035007;28;20207;-24
2022/11/23 12:12:30;;;;;;;1.77;0.60;;;;;;;;;;5034276;28;20210;-30
2022/11/23 12:14:57;;;;;;;0.70;0.57;;;;;;;;;;5032604;28;20210;-28
2022/11/23 12:17:35;;;;;;;3.70;0.50;;;;;;;;;;5043478;28;20247;-26
2022/11/23 12:20:06;;;;;;;1.73;0.80;;;;;;;;;;5050119;28;20286;-26
2022/11/23 12:22:37;;;;;;;0.43;0.43;;;;;;;;;;5033977;28;20214;-27
2022/11/23 12:25:13;;;;;;;4.20;0.70;;;;;;;;;;5021845;28;20235;-30
2022/11/23 12:27:45;;;;;;;0.53;0.53;;;;;;;;;;5020377;28;20218;-26
2022/11/23 12:30:18;;;;;;;1.47;0.50;;;;;;;;;;5031368;28;20265;-27
2022/11/23 12:32:54;;;;;;;1.83;0.80;;;;;;;;;;5043540;28;20194;-25
2022/11/23 12:35:42;;;;;;;1.93;0.80;;;;;;;;;;5035192;28;20202;-29
2022/11/23 12:38:17;;;;;;;0.73;0.70;;;;;;;;;;5032164;28;20320;-30
2022/11/23 12:40:50;;;;;;;2.67;0.90;;;;;;;;;;5031813;28;20257;-23
2022/11/23 12:43:21;;;;;;;1.73;0.70;;;;;;;;;;5025217;28;20210;-26
2022/11/23 12:45:56;;;;;;;1.90;0.63;;;;;;;;;;5028344;28;20289;-26
2022/11/23 12:48:34;;;;;;;1.60;0.80;;;;;;;;;;5039584;28;20206;-28
2022/11/23 12:51:05;;;;;;;2.93;1.10;;;;;;;;;;5043670;28;20221;-29
2022/11/23 12:53:39;;;;;;;1.53;0.80;;;;;;;;;;5035787;28;20202;-29
2022/11/23 12:56:12;;;;;;;1.83;0.93;;;;;;;;;;5035487;28;20206;-31
2022/11/23 12:58:40;;;;;;;2.87;0.80;;;;;;;;;;5039581;28;20226;-30
2022/11/23 13:01:10;;;;;;;2.27;0.80;;;;;;;;;;5030938;28;20236;-29
2022/11/23 13:03:56;;;;;;;1.47;0.80;;;;;;;;;;5045611;28;20190;-29
2022/11/23 13:09:06;;;;;;;2.00;0.80;;;;;;;;;;5046886;28;20321;-43
2022/11/23 13:11:44;;;;;;;5.40;1.00;;;;;;;;;;5048909;28;20222;-37
2022/11/23 13:14:18;;;;;;;1.07;0.60;;;;;;;;;;5056219;28;20204;-34
2022/11/23 13:16:59;;;;;;;0.93;0.87;;;;;;;;;;5051162;28;20312;-36
2022/11/23 13:19:41;;;;;;;6.53;0.73;;;;;;;;;;5056886;28;20197;-39
2022/11/23 13:22:11;;;;;;;2.13;0.73;;;;;;;;;;5062150;28;20221;-38
2022/11/23 13:24:41;;;;;;;3.00;0.67;;;;;;;;;;5043983;28;20209;-34
2022/11/23 13:27:27;;;;;;;1.30;0.60;;;;;;;;;;5049531;28;20202;-37
2022/11/23 13:29:59;;;;;;;1.83;0.47;;;;;;;;;;5046900;28;20206;-40
2022/11/23 13:32:45;;;;;;;1.07;0.60;;;;;;;;;;5051802;28;20205;-37
2022/11/23 13:35:27;;;;;;;1.20;0.47;;;;;;;;;;5044011;28;20269;-37
2022/11/23 13:38:21;;;;;;;2.30;0.60;;;;;;;;;;5039650;28;20209;-34
2022/11/23 13:40:50;;;;;;;0.70;0.40;;;;;;;;;;5026420;28;20222;-33
2022/11/23 13:43:19;;;;;;;1.73;0.60;;;;;;;;;;5052286;28;20205;-35
2022/11/23 13:45:48;;;;;;;2.77;0.67;;;;;;;;;;5047165;28;20232;-39
2022/11/23 13:48:19;;;;;;;2.40;1.23;;;;;;;;;;5044037;28;20228;-38
2022/11/23 13:50:57;;;;;;;1.47;0.70;;;;;;;;;;5058728;28;20307;-37
2022/11/23 13:53:26;;;;;;;2.90;0.70;;;;;;;;;;5050023;28;20205;-38
2022/11/23 13:55:54;;;;;;;1.03;0.43;;;;;;;;;;5037788;28;20203;-34
2022/11/23 13:58:45;;;;;;;0.97;0.50;;;;;;;;;;5057958;28;20200;-42
2022/11/23 14:01:44;;;;;;;1.53;0.60;;;;;;;;;;5028210;28;20234;-36
2022/11/23 14:04:21;;;;;;;2.47;0.93;;;;;;;;;;5056278;28;20293;-32
2022/11/23 14:06:55;;;;;;;2.73;0.50;;;;;;;;;;5033554;28;20210;-34
2022/11/23 14:09:25;;;;;;;1.30;0.50;;;;;;;;;;5034481;28;20309;-38
2022/11/23 14:12:01;;;;;;;0.90;0.47;;;;;;;;;;5051479;28;20226;-37
2022/11/23 14:14:31;;;;;;;1.07;0.50;;;;;;;;;;5049904;28;20210;-41
2022/11/23 14:17:20;;;;;;;2.83;0.73;;;;;;;;;;5052973;28;20224;-37
2022/11/23 14:19:57;;;;;;;1.20;0.63;;;;;;;;;;5054122;28;20209;-39
2022/11/23 14:22:38;;;;;;;0.67;0.50;;;;;;;;;;5055206;28;20210;-34
2022/11/23 14:25:16;;;;;;;3.13;0.77;;;;;;;;;;5040118;28;20215;-38
2022/11/23 14:27:54;;;;;;;0.60;0.60;;;;;;;;;;5050739;28;20200;-36
2022/11/23 14:30:35;;;;;;;1.40;0.60;;;;;;;;;;5045172;28;20245;-37
2022/11/23 14:33:14;;;;;;;0.50;0.50;;;;;;;;;;5051495;28;20305;-37
2022/11/23 14:35:47;;;;;;;1.77;0.70;;;;;;;;;;5055135;28;20194;-35
2022/11/23 14:38:36;;;;;;;0.83;0.50;;;;;;;;;;5051868;28;20198;-43
2022/11/23 14:41:06;;;;;;;0.67;0.60;;;;;;;;;;5040585;28;20527;-36
2022/11/23 14:43:34;;;;;;;0.40;0.37;;;;;;;;;;5048067;28;20204;-34
2022/11/23 14:46:02;;;;;;;0.50;0.50;;;;;;;;;;5047662;28;20206;-36
2022/11/23 14:48:33;;;;;;;2.23;0.87;;;;;;;;;;5054276;28;20218;-34
2022/11/23 14:51:02;;;;;;;1.60;0.50;;;;;;;;;;5054911;28;20308;-39
2022/11/23 14:53:30;;;;;;;1.13;0.70;;;;;;;;;;5047554;28;20202;-40
2022/11/23 14:55:58;;;;;;;15.83;8.93;;;;;;;;;;5053623;28;20273;-32
2022/11/23 14:58:27;;;;;;;1.33;0.70;;;;;;;;;;5054149;28;20199;-35
2022/11/23 15:00:59;;;;;;;1.17;0.50;;;;;;;;;;5048748;28;20230;-36
2022/11/23 15:03:28;;;;;;;0.50;0.50;;;;;;;;;;5048476;28;20533;-30
2022/11/23 15:05:57;;;;;;;0.23;0.23;;;;;;;;;;5054268;28;20294;-39